Time;durP1;ratioP1;P1;durP2;ratioP2;P2;SDS_P1;SDS_P2;PMS_P1;PMS_P2;Temp;Humidity;BMP_temperature;BMP_pressure;BME280_temperature;BME280_humidity;BME280_pressure;Samples;Min_cycle;Max_cycle;Signal;HPM_P1;HPM_P2
2023/08/11 00:01:41;;;;;;;5.55;2.65;;;16.10;99.90;;;;;;4984195;28;20022;-87
2023/08/11 00:04:07;;;;;;;5.22;2.95;;;16.10;99.90;;;;;;4995355;28;20034;-86
2023/08/11 00:06:32;;;;;;;5.60;2.60;;;16.10;99.90;;;;;;4999440;28;20021;-86
2023/08/11 00:08:59;;;;;;;7.18;2.83;;;16.10;99.90;;;;;;4998264;28;20038;-87
2023/08/11 00:11:24;;;;;;;7.05;2.95;;;16.00;99.90;;;;;;4998090;28;20049;-86
2023/08/11 00:13:50;;;;;;;5.03;2.63;;;16.00;99.90;;;;;;4983762;28;20066;-86
2023/08/11 00:16:15;;;;;;;4.00;2.47;;;16.00;99.90;;;;;;5003723;28;20076;-86
2023/08/11 00:18:41;;;;;;;3.80;2.70;;;15.90;99.90;;;;;;4997869;28;20038;-86
2023/08/11 00:21:07;;;;;;;6.18;2.63;;;15.90;99.90;;;;;;4992168;28;20043;-86
2023/08/11 00:23:33;;;;;;;11.65;3.20;;;15.80;99.90;;;;;;5005976;28;20036;-86
2023/08/11 00:25:58;;;;;;;7.82;3.08;;;15.80;99.90;;;;;;4993940;28;20205;-86
2023/08/11 00:28:25;;;;;;;3.85;2.70;;;15.80;99.90;;;;;;4985471;28;20034;-86
2023/08/11 00:30:50;;;;;;;7.60;2.97;;;15.80;99.90;;;;;;4993449;28;20022;-86
2023/08/11 00:33:16;;;;;;;4.75;2.75;;;15.80;99.90;;;;;;4992817;28;20026;-86
2023/08/11 00:35:42;;;;;;;4.80;2.90;;;15.70;99.90;;;;;;5002941;28;20508;-86
2023/08/11 00:38:07;;;;;;;6.68;3.10;;;15.80;99.90;;;;;;4992492;28;20022;-86
2023/08/11 00:40:33;;;;;;;4.72;2.90;;;15.70;99.90;;;;;;4994495;28;20133;-86
2023/08/11 00:42:58;;;;;;;4.82;2.45;;;15.70;99.90;;;;;;4994563;28;20493;-86
2023/08/11 00:45:24;;;;;;;4.20;2.50;;;15.70;99.90;;;;;;4994955;28;20485;-86
2023/08/11 00:47:50;;;;;;;6.68;2.67;;;15.70;99.90;;;;;;4994393;28;20087;-86
2023/08/11 00:50:16;;;;;;;5.18;3.05;;;15.60;99.90;;;;;;4983231;28;20035;-86
2023/08/11 00:52:44;;;;;;;5.78;3.05;;;15.60;99.90;;;;;;4991493;28;20136;-86
2023/08/11 00:55:10;;;;;;;5.18;3.13;;;15.60;99.90;;;;;;4994316;28;20046;-86
2023/08/11 00:57:37;;;;;;;6.00;2.90;;;15.60;99.90;;;;;;4992644;28;20088;-86
2023/08/11 01:00:12;;;;;;;8.20;2.97;;;15.60;99.90;;;;;;4989777;28;20022;-86
2023/08/11 01:02:41;;;;;;;4.07;2.85;;;15.60;99.90;;;;;;5007812;28;20022;-86
2023/08/11 01:05:08;;;;;;;6.25;3.03;;;15.60;99.90;;;;;;4984483;28;20034;-86
2023/08/11 01:07:53;;;;;;;5.43;3.25;;;15.60;99.90;;;;;;4997375;28;20427;-86
2023/08/11 01:10:18;;;;;;;7.25;3.17;;;15.60;99.90;;;;;;4997471;28;20033;-86
2023/08/11 01:12:54;;;;;;;6.25;2.83;;;15.60;99.90;;;;;;5005202;28;20022;-86
2023/08/11 01:15:29;;;;;;;5.53;3.30;;;15.60;99.90;;;;;;4998763;28;20029;-86
2023/08/11 01:17:55;;;;;;;6.57;4.30;;;15.60;99.90;;;;;;4997184;28;20017;-85
2023/08/11 01:20:21;;;;;;;5.82;4.03;;;15.60;99.90;;;;;;4992619;28;20034;-86
2023/08/11 01:22:53;;;;;;;5.32;4.25;;;15.70;99.90;;;;;;4996727;28;20029;-86
2023/08/11 01:25:20;;;;;;;8.32;6.55;;;15.70;99.90;;;;;;4998372;28;20030;-86
2023/08/11 01:27:56;;;;;;;6.78;4.82;;;15.70;99.90;;;;;;4997515;28;20061;-85
2023/08/11 01:30:22;;;;;;;7.40;5.45;;;15.80;99.90;;;;;;5018417;28;20033;-86
2023/08/11 01:32:48;;;;;;;7.95;5.63;;;15.80;99.90;;;;;;4997007;28;20053;-86
2023/08/11 01:35:14;;;;;;;7.75;6.82;;;15.80;99.90;;;;;;4994662;28;20479;-86
2023/08/11 01:37:39;;;;;;;7.50;5.40;;;15.80;99.90;;;;;;5005780;28;20064;-85
2023/08/11 01:40:11;;;;;;;8.25;6.15;;;15.80;99.90;;;;;;4997386;28;20022;-84
2023/08/11 01:42:41;;;;;;;7.55;6.75;;;15.80;99.90;;;;;;4997525;28;20057;-85
2023/08/11 01:45:08;;;;;;;9.45;6.93;;;15.90;99.90;;;;;;4997486;28;20044;-85
2023/08/11 01:47:39;;;;;;;9.27;6.88;;;15.90;99.90;;;;;;4996497;28;20026;-85
2023/08/11 01:50:06;;;;;;;12.13;7.93;;;15.90;99.90;;;;;;4999212;28;20026;-85
2023/08/11 01:52:35;;;;;;;13.40;7.78;;;15.90;99.90;;;;;;5014588;28;20446;-85
2023/08/11 01:55:01;;;;;;;10.18;8.27;;;15.90;99.90;;;;;;4989224;28;20046;-86
2023/08/11 01:57:27;;;;;;;10.45;7.50;;;16.00;99.90;;;;;;4990004;28;20122;-85
2023/08/11 01:59:53;;;;;;;11.15;8.38;;;15.90;99.90;;;;;;5013128;28;20018;-86
2023/08/11 02:02:18;;;;;;;14.32;8.07;;;15.90;99.90;;;;;;4999136;28;20060;-86
2023/08/11 02:04:45;;;;;;;12.77;9.23;;;15.90;99.90;;;;;;5003326;28;20486;-86
2023/08/11 02:07:10;;;;;;;12.35;8.13;;;15.80;99.90;;;;;;4996866;28;20033;-86
2023/08/11 02:09:36;;;;;;;11.32;7.20;;;15.80;99.90;;;;;;4996632;28;20033;-85
2023/08/11 02:12:02;;;;;;;11.20;8.18;;;15.80;99.90;;;;;;4994243;28;20030;-86
2023/08/11 02:14:28;;;;;;;10.93;8.43;;;15.80;99.90;;;;;;4996242;28;20034;-86
2023/08/11 02:16:53;;;;;;;10.40;7.35;;;15.80;99.90;;;;;;5005694;28;20149;-86
2023/08/11 02:19:19;;;;;;;8.88;6.82;;;15.80;99.90;;;;;;4997204;28;20466;-86
2023/08/11 02:21:44;;;;;;;10.88;6.72;;;15.70;99.90;;;;;;4992807;28;20470;-86
2023/08/11 02:24:10;;;;;;;8.80;7.35;;;15.70;99.90;;;;;;5011950;28;20034;-86
2023/08/11 02:26:35;;;;;;;12.95;7.53;;;15.70;99.90;;;;;;4994039;28;20103;-86
2023/08/11 02:29:03;;;;;;;11.00;7.78;;;15.70;99.90;;;;;;4980700;28;20034;-85
2023/08/11 02:31:31;;;;;;;11.35;8.60;;;15.60;99.90;;;;;;4986924;28;20422;-86
2023/08/11 02:33:56;;;;;;;12.02;7.55;;;15.60;99.90;;;;;;4995406;28;20034;-86
2023/08/11 02:36:23;;;;;;;11.57;8.48;;;15.60;99.90;;;;;;5003693;28;20029;-86
2023/08/11 02:38:49;;;;;;;11.38;7.50;;;15.50;99.90;;;;;;5001461;28;20501;-86
2023/08/11 02:41:15;;;;;;;10.38;7.03;;;15.60;99.90;;;;;;5009231;28;20505;-86
2023/08/11 02:43:40;;;;;;;10.52;7.45;;;15.50;99.90;;;;;;4991876;28;20062;-87
2023/08/11 02:46:06;;;;;;;13.88;7.82;;;15.40;99.90;;;;;;5013551;28;20101;-86
2023/08/11 02:48:34;;;;;;;13.85;7.68;;;15.40;99.90;;;;;;5010174;28;20038;-86
2023/08/11 02:51:03;;;;;;;11.77;7.38;;;15.40;99.90;;;;;;5009348;28;20026;-86
2023/08/11 02:53:28;;;;;;;10.98;8.02;;;15.30;99.90;;;;;;4996501;28;20394;-86
2023/08/11 02:55:54;;;;;;;9.45;7.45;;;15.30;99.90;;;;;;5013235;28;20045;-86
2023/08/11 02:58:20;;;;;;;10.32;8.75;;;15.30;99.90;;;;;;4995630;28;20045;-86
2023/08/11 03:00:47;;;;;;;11.52;8.23;;;15.20;99.90;;;;;;4993440;28;20033;-86
2023/08/11 03:03:12;;;;;;;14.55;8.88;;;15.20;99.90;;;;;;5013143;28;20363;-86
2023/08/11 03:05:38;;;;;;;11.68;7.93;;;15.20;99.90;;;;;;5011883;28;20044;-86
2023/08/11 03:08:04;;;;;;;11.68;8.07;;;15.20;99.90;;;;;;5004617;28;20445;-86
2023/08/11 03:10:29;;;;;;;10.90;9.10;;;15.10;99.90;;;;;;4992080;28;20033;-86
2023/08/11 03:12:55;;;;;;;13.75;10.18;;;15.10;99.90;;;;;;4996553;28;20056;-86
2023/08/11 03:15:21;;;;;;;13.55;9.95;;;15.10;99.90;;;;;;5015973;28;20029;-86
2023/08/11 03:17:46;;;;;;;13.38;9.77;;;15.10;99.90;;;;;;5013199;28;20049;-86
2023/08/11 03:20:12;;;;;;;16.25;10.57;;;15.10;99.90;;;;;;5012121;28;20041;-86
2023/08/11 03:22:39;;;;;;;12.82;10.38;;;15.00;99.90;;;;;;4995370;28;20022;-86
2023/08/11 03:25:07;;;;;;;15.18;11.95;;;15.00;99.90;;;;;;4991598;28;20045;-86
2023/08/11 03:27:34;;;;;;;18.48;11.90;;;15.00;99.90;;;;;;4998540;28;20046;-86
2023/08/11 03:29:59;;;;;;;19.23;13.05;;;15.00;99.90;;;;;;5010984;28;20026;-86
2023/08/11 03:32:25;;;;;;;15.63;12.68;;;14.90;99.90;;;;;;4989597;28;20117;-86
2023/08/11 03:34:50;;;;;;;14.00;11.65;;;14.90;99.90;;;;;;4995238;28;20030;-86
2023/08/11 03:37:16;;;;;;;15.70;12.18;;;14.90;99.90;;;;;;4993955;28;20068;-86
2023/08/11 03:39:41;;;;;;;14.70;11.85;;;14.90;99.90;;;;;;4992477;28;20026;-84
2023/08/11 03:42:07;;;;;;;17.60;12.43;;;14.90;99.90;;;;;;5001271;28;20036;-86
2023/08/11 03:44:33;;;;;;;15.80;12.82;;;14.90;99.90;;;;;;4995453;28;20034;-86
2023/08/11 03:46:58;;;;;;;14.40;11.48;;;14.90;99.90;;;;;;4994557;28;20054;-86
2023/08/11 03:49:24;;;;;;;17.92;14.27;;;14.90;99.90;;;;;;4981831;28;20018;-86
2023/08/11 03:51:49;;;;;;;16.48;12.48;;;14.80;99.90;;;;;;4977667;28;20039;-86
2023/08/11 03:54:15;;;;;;;16.88;12.15;;;14.90;99.90;;;;;;4982468;28;20045;-86
2023/08/11 03:56:40;;;;;;;18.73;11.68;;;14.80;99.90;;;;;;4989118;28;20395;-86
2023/08/11 03:59:06;;;;;;;16.13;11.70;;;14.80;99.90;;;;;;4993370;28;20028;-86
2023/08/11 04:01:31;;;;;;;16.02;12.35;;;14.80;99.90;;;;;;4995086;28;20029;-85
2023/08/11 04:03:57;;;;;;;20.75;12.93;;;14.80;99.90;;;;;;4990547;28;20049;-85
2023/08/11 04:06:28;;;;;;;16.60;12.30;;;14.70;99.90;;;;;;5000788;28;20080;-85
2023/08/11 04:08:54;;;;;;;18.57;13.20;;;14.80;99.90;;;;;;4975904;28;20495;-86
2023/08/11 04:11:19;;;;;;;19.10;13.68;;;14.70;99.90;;;;;;4985088;28;20278;-86
2023/08/11 04:13:45;;;;;;;16.00;12.80;;;14.80;99.90;;;;;;4994088;28;20380;-86
2023/08/11 04:16:10;;;;;;;18.55;13.10;;;14.70;99.90;;;;;;4989366;28;20037;-86
2023/08/11 04:18:36;;;;;;;16.88;12.98;;;14.80;99.90;;;;;;4984122;28;20039;-86
2023/08/11 04:21:02;;;;;;;16.00;12.80;;;14.70;99.90;;;;;;4980168;28;20183;-86
2023/08/11 04:23:27;;;;;;;15.88;12.77;;;14.70;99.90;;;;;;4988082;28;20026;-86
2023/08/11 04:25:53;;;;;;;18.38;13.23;;;14.70;99.90;;;;;;4989716;28;20034;-85
2023/08/11 04:28:19;;;;;;;19.10;14.02;;;14.70;99.90;;;;;;4995191;28;20080;-86
2023/08/11 04:30:44;;;;;;;18.20;13.18;;;14.70;99.90;;;;;;4993834;28;20441;-86
2023/08/11 04:33:12;;;;;;;16.95;13.88;;;14.70;99.90;;;;;;4990975;28;20038;-86
2023/08/11 04:35:38;;;;;;;17.10;13.68;;;14.70;99.90;;;;;;5008913;28;20026;-86
2023/08/11 04:38:04;;;;;;;20.42;14.65;;;14.70;99.90;;;;;;4985930;28;20045;-86
2023/08/11 04:40:29;;;;;;;17.73;13.52;;;14.80;99.90;;;;;;4980005;28;20018;-85
2023/08/11 04:42:56;;;;;;;20.00;13.65;;;14.70;99.90;;;;;;4997762;28;20019;-86
2023/08/11 04:45:21;;;;;;;16.17;13.40;;;14.80;99.90;;;;;;4995393;28;20064;-85
2023/08/11 04:47:47;;;;;;;16.77;13.23;;;14.80;99.90;;;;;;4988879;28;20127;-86
2023/08/11 04:50:13;;;;;;;17.17;13.10;;;14.80;99.90;;;;;;4998820;28;20033;-86
2023/08/11 04:52:38;;;;;;;18.33;14.88;;;14.80;99.90;;;;;;4982669;28;20117;-86
2023/08/11 04:55:07;;;;;;;21.05;13.88;;;14.80;99.90;;;;;;4995271;28;20054;-85
2023/08/11 04:57:33;;;;;;;16.48;13.70;;;14.80;99.90;;;;;;4992671;28;20026;-85
2023/08/11 04:59:59;;;;;;;20.02;13.50;;;14.80;99.90;;;;;;4994116;28;20028;-85
2023/08/11 05:02:25;;;;;;;19.13;13.68;;;14.90;99.90;;;;;;5003797;28;20112;-86
2023/08/11 05:04:50;;;;;;;19.67;14.48;;;14.90;99.90;;;;;;5011477;28;20055;-86
2023/08/11 05:07:16;;;;;;;17.23;14.18;;;15.00;99.90;;;;;;4998349;28;20034;-85
2023/08/11 05:09:42;;;;;;;24.73;15.45;;;15.00;99.90;;;;;;5018224;28;20429;-85
2023/08/11 05:12:07;;;;;;;19.27;14.40;;;15.10;99.90;;;;;;4999421;28;20198;-85
2023/08/11 05:14:33;;;;;;;26.98;16.02;;;15.10;99.90;;;;;;4981001;28;20462;-86
2023/08/11 05:16:59;;;;;;;25.02;15.75;;;15.20;99.90;;;;;;5015537;28;20110;-86
2023/08/11 05:19:25;;;;;;;22.67;16.10;;;15.30;99.90;;;;;;4998062;28;20040;-85
2023/08/11 05:21:51;;;;;;;18.90;14.10;;;15.30;99.90;;;;;;4997908;28;20105;-85
2023/08/11 05:24:16;;;;;;;19.23;15.05;;;15.40;99.90;;;;;;4998164;28;20488;-85
2023/08/11 05:26:42;;;;;;;21.75;13.75;;;15.50;99.90;;;;;;4997354;28;20021;-85
2023/08/11 05:29:07;;;;;;;17.17;15.10;;;15.60;99.90;;;;;;4999625;28;20633;-86
2023/08/11 05:31:33;;;;;;;19.38;14.25;;;15.70;99.90;;;;;;5008375;28;20410;-86
2023/08/11 05:33:59;;;;;;;25.98;15.30;;;15.70;99.90;;;;;;4996351;28;20034;-86
2023/08/11 05:36:24;;;;;;;21.33;14.23;;;15.80;99.90;;;;;;5008982;28;20085;-86
2023/08/11 05:38:50;;;;;;;17.73;14.27;;;15.90;99.90;;;;;;4996973;28;20026;-84
2023/08/11 05:41:16;;;;;;;22.33;14.40;;;16.00;99.90;;;;;;4997700;28;20395;-85
2023/08/11 05:43:42;;;;;;;17.73;13.38;;;16.10;99.90;;;;;;4989540;28;20074;-84
2023/08/11 05:46:07;;;;;;;22.45;14.55;;;16.20;99.90;;;;;;4991692;28;20486;-85
2023/08/11 05:48:35;;;;;;;19.10;13.23;;;16.30;99.90;;;;;;4998534;28;20037;-85
2023/08/11 05:51:01;;;;;;;14.70;12.63;;;16.50;99.90;;;;;;4997773;28;20026;-85
2023/08/11 05:53:27;;;;;;;15.45;12.25;;;16.70;99.90;;;;;;4997189;28;20541;-84
2023/08/11 05:55:53;;;;;;;20.05;12.77;;;16.80;99.90;;;;;;4999957;28;20042;-85
2023/08/11 05:58:18;;;;;;;17.80;13.13;;;16.90;99.90;;;;;;4997768;28;20034;-85
2023/08/11 06:00:43;;;;;;;21.05;11.63;;;17.10;99.90;;;;;;4994463;28;20033;-84
2023/08/11 06:03:09;;;;;;;21.52;14.27;;;17.20;99.90;;;;;;5012024;28;20030;-90
2023/08/11 06:05:34;;;;;;;17.48;12.05;;;17.30;99.90;;;;;;4996206;28;20029;-85
2023/08/11 06:08:00;;;;;;;18.15;13.63;;;17.40;99.90;;;;;;4996205;28;20417;-85
2023/08/11 06:10:26;;;;;;;19.10;12.45;;;17.50;99.90;;;;;;4995551;28;20030;-85
2023/08/11 06:12:52;;;;;;;18.48;13.23;;;17.60;99.90;;;;;;4995068;28;20026;-88
2023/08/11 06:15:18;;;;;;;15.27;12.45;;;17.70;99.90;;;;;;4998008;28;20026;-88
2023/08/11 06:17:49;;;;;;;19.15;12.70;;;17.80;99.90;;;;;;4995016;28;20180;-88
2023/08/11 06:20:15;;;;;;;18.00;12.38;;;17.90;99.90;;;;;;4992925;28;20033;-89
2023/08/11 06:22:41;;;;;;;18.50;12.95;;;18.00;99.90;;;;;;4994010;28;20667;-88
2023/08/11 06:25:07;;;;;;;16.38;11.40;;;18.10;99.90;;;;;;4987724;28;20038;-89
2023/08/11 06:27:33;;;;;;;15.52;11.75;;;18.10;99.90;;;;;;4981420;28;20111;-88
2023/08/11 06:29:58;;;;;;;19.55;12.15;;;18.20;99.90;;;;;;4981908;28;20033;-88
2023/08/11 06:32:24;;;;;;;17.50;11.30;;;18.30;99.90;;;;;;4994964;28;20513;-87
2023/08/11 06:34:49;;;;;;;19.42;12.30;;;18.40;99.90;;;;;;4994863;28;20068;-87
2023/08/11 06:37:16;;;;;;;16.30;11.68;;;18.40;99.90;;;;;;4994768;28;20105;-87
2023/08/11 06:39:42;;;;;;;12.85;9.60;;;18.60;99.90;;;;;;4996441;28;20018;-87
2023/08/11 06:42:08;;;;;;;16.02;11.73;;;18.70;99.90;;;;;;4996260;28;20068;-87
2023/08/11 06:44:33;;;;;;;17.40;11.65;;;18.70;99.90;;;;;;4992697;28;20114;-87
2023/08/11 06:46:59;;;;;;;17.15;11.73;;;18.80;99.90;;;;;;5004498;28;20036;-88
2023/08/11 06:49:24;;;;;;;17.48;11.73;;;18.90;99.90;;;;;;4996509;28;20030;-87
2023/08/11 06:51:50;;;;;;;15.60;11.27;;;18.90;99.90;;;;;;4996640;28;20116;-88
2023/08/11 06:54:15;;;;;;;16.77;12.60;;;19.10;99.90;;;;;;4983548;28;20054;-87
2023/08/11 06:56:41;;;;;;;14.95;11.35;;;19.20;99.90;;;;;;4980226;28;20053;-88
2023/08/11 06:59:07;;;;;;;15.30;10.68;;;19.20;99.90;;;;;;4996315;28;20026;-88
2023/08/11 07:01:33;;;;;;;16.10;11.60;;;19.40;99.90;;;;;;4996116;28;20030;-88
2023/08/11 07:03:58;;;;;;;14.35;11.15;;;19.40;99.90;;;;;;4996125;28;20083;-88
2023/08/11 07:06:24;;;;;;;13.70;10.90;;;19.50;99.90;;;;;;4995909;28;20076;-88
2023/08/11 07:08:49;;;;;;;15.88;11.18;;;19.60;99.90;;;;;;5012828;28;20033;-86
2023/08/11 07:11:15;;;;;;;12.27;10.05;;;19.70;99.90;;;;;;5008942;28;20018;-87
2023/08/11 07:13:41;;;;;;;14.75;10.88;;;19.80;99.90;;;;;;4988278;28;20026;-89
2023/08/11 07:16:06;;;;;;;16.58;9.95;;;19.90;99.90;;;;;;4986992;28;20034;-87
2023/08/11 07:18:32;;;;;;;11.73;10.15;;;20.10;99.90;;;;;;4996180;28;20445;-88
2023/08/11 07:20:58;;;;;;;16.85;11.25;;;20.10;99.90;;;;;;4979848;28;20025;-89
2023/08/11 07:23:23;;;;;;;14.35;10.95;;;20.20;99.90;;;;;;4996223;28;20044;-89
2023/08/11 07:25:49;;;;;;;15.88;12.55;;;20.40;99.90;;;;;;4988559;28;20030;-87
2023/08/11 07:28:14;;;;;;;16.83;10.93;;;20.40;99.90;;;;;;4988874;28;20037;-87
2023/08/11 07:30:40;;;;;;;15.80;11.75;;;20.50;99.90;;;;;;4989305;28;20025;-89
2023/08/11 07:33:05;;;;;;;17.58;12.60;;;20.60;99.90;;;;;;4980065;28;20422;-89
2023/08/11 07:35:31;;;;;;;13.95;10.88;;;20.70;99.90;;;;;;4989869;28;20064;-89
2023/08/11 07:37:56;;;;;;;15.70;12.00;;;20.80;99.90;;;;;;4985787;28;20025;-88
2023/08/11 07:40:22;;;;;;;15.20;11.27;;;20.90;99.90;;;;;;4976670;28;20533;-89
2023/08/11 07:42:47;;;;;;;17.35;11.57;;;21.10;99.90;;;;;;4976183;28;20022;-89
2023/08/11 07:45:13;;;;;;;15.02;11.23;;;21.10;99.90;;;;;;4980092;28;20065;-89
2023/08/11 07:47:39;;;;;;;17.27;11.25;;;21.30;99.90;;;;;;4980752;28;20026;-88
2023/08/11 07:50:05;;;;;;;15.80;11.73;;;21.30;99.90;;;;;;4994927;28;20030;-88
2023/08/11 07:52:31;;;;;;;18.52;11.88;;;21.40;99.90;;;;;;4986290;28;20022;-88
2023/08/11 07:54:56;;;;;;;13.85;11.60;;;21.50;99.90;;;;;;5010327;28;20046;-88
2023/08/11 07:57:22;;;;;;;14.52;11.40;;;21.60;99.90;;;;;;4995451;28;20033;-88
2023/08/11 07:59:47;;;;;;;17.35;11.70;;;21.70;99.90;;;;;;4985365;28;20054;-89
2023/08/11 08:02:13;;;;;;;16.20;12.30;;;21.80;99.90;;;;;;4980558;28;20126;-88
2023/08/11 08:04:39;;;;;;;15.85;11.85;;;21.90;99.90;;;;;;5005080;28;20088;-88
2023/08/11 08:07:05;;;;;;;13.25;11.27;;;22.00;99.90;;;;;;4975695;28;20034;-89
2023/08/11 08:09:33;;;;;;;18.52;10.35;;;22.10;99.90;;;;;;4989165;28;20203;-88
2023/08/11 08:12:00;;;;;;;13.20;11.20;;;22.20;99.90;;;;;;4994671;28;20029;-89
2023/08/11 08:14:25;;;;;;;14.25;11.82;;;22.30;99.90;;;;;;4991979;28;20070;-87
2023/08/11 08:16:51;;;;;;;20.08;12.35;;;22.40;99.90;;;;;;4991892;28;20057;-88
2023/08/11 08:19:18;;;;;;;14.18;12.60;;;22.50;99.90;;;;;;4994963;28;20104;-89
2023/08/11 08:21:46;;;;;;;15.00;11.15;;;22.60;99.90;;;;;;4985362;28;20034;-88
2023/08/11 08:24:14;;;;;;;12.52;10.70;;;22.70;99.90;;;;;;4979160;28;20053;-88
2023/08/11 08:26:40;;;;;;;13.95;10.93;;;22.80;99.90;;;;;;4995608;28;20032;-89
2023/08/11 08:29:05;;;;;;;14.55;11.75;;;22.90;99.90;;;;;;4979102;28;20059;-88
2023/08/11 08:31:31;;;;;;;15.20;11.80;;;23.00;99.90;;;;;;4994493;28;20022;-89
2023/08/11 08:33:57;;;;;;;14.95;10.75;;;23.10;99.90;;;;;;4992979;28;20030;-89
2023/08/11 08:36:22;;;;;;;15.75;10.43;;;23.20;99.90;;;;;;5001358;28;20117;-89
2023/08/11 08:38:48;;;;;;;11.48;10.25;;;23.30;99.90;;;;;;4994649;28;20026;-88
2023/08/11 08:41:16;;;;;;;14.25;10.80;;;23.40;99.90;;;;;;4981517;28;20045;-87
2023/08/11 08:43:42;;;;;;;15.02;9.85;;;23.60;99.90;;;;;;4987993;28;20042;-88
2023/08/11 08:46:09;;;;;;;12.25;9.55;;;23.70;99.90;;;;;;4983868;28;20058;-88
2023/08/11 08:48:43;;;;;;;14.38;11.15;;;23.80;99.90;;;;;;4975947;28;20442;-88
2023/08/11 08:51:09;;;;;;;14.90;10.82;;;23.90;99.90;;;;;;4995042;28;20052;-89
2023/08/11 08:53:35;;;;;;;15.23;9.63;;;24.00;99.90;;;;;;4991573;28;20030;-89
2023/08/11 08:56:05;;;;;;;14.95;9.98;;;24.00;99.90;;;;;;4991751;28;20411;-89
2023/08/11 08:58:31;;;;;;;11.93;8.80;;;24.10;99.90;;;;;;4983943;28;20097;-88
2023/08/11 09:01:01;;;;;;;11.43;9.80;;;24.20;99.90;;;;;;4983054;28;20432;-88
2023/08/11 09:03:33;;;;;;;12.18;9.85;;;24.30;99.90;;;;;;4994489;28;20256;-89
2023/08/11 09:05:59;;;;;;;10.70;8.20;;;24.40;99.90;;;;;;4977540;28;20382;-86
2023/08/11 09:08:25;;;;;;;13.98;7.47;;;24.50;99.90;;;;;;4992084;28;20031;-88
2023/08/11 09:10:50;;;;;;;10.32;7.40;;;24.60;99.90;;;;;;5009627;28;20019;-87
2023/08/11 09:13:16;;;;;;;10.65;7.25;;;24.70;99.90;;;;;;4977112;28;20029;-88
2023/08/11 09:15:42;;;;;;;10.95;8.23;;;24.80;99.90;;;;;;4991427;28;20018;-87
2023/08/11 09:18:14;;;;;;;11.68;7.60;;;25.00;99.90;;;;;;4991755;28;20026;-87
2023/08/11 09:20:39;;;;;;;13.37;7.40;;;25.10;99.90;;;;;;5002702;28;20054;-87
2023/08/11 09:23:05;;;;;;;8.40;6.07;;;25.20;99.90;;;;;;4985135;28;20321;-88
2023/08/11 09:25:31;;;;;;;9.60;7.28;;;25.30;99.90;;;;;;4985741;28;20033;-88
2023/08/11 09:27:58;;;;;;;9.18;6.55;;;25.40;99.90;;;;;;4997770;28;20474;-88
2023/08/11 09:30:28;;;;;;;8.85;6.15;;;25.50;99.90;;;;;;4998564;28;20399;-88
2023/08/11 09:32:54;;;;;;;13.27;5.88;;;25.60;99.90;;;;;;4997451;28;20030;-89
2023/08/11 09:35:23;;;;;;;7.43;5.07;;;25.80;99.90;;;;;;4998105;28;20364;-89
2023/08/11 09:37:54;;;;;;;9.32;5.88;;;25.90;99.90;;;;;;4996718;28;20036;-89
2023/08/11 09:40:24;;;;;;;11.82;4.72;;;25.90;99.90;;;;;;4998152;28;20352;-89
2023/08/11 09:42:53;;;;;;;7.07;4.75;;;26.00;99.90;;;;;;4997912;28;20427;-93
2023/08/11 09:45:18;;;;;;;6.50;4.95;;;26.10;99.90;;;;;;4994140;28;20038;-94
2023/08/11 09:47:46;;;;;;;6.35;4.95;;;26.30;99.90;;;;;;4985717;28;20029;-95
2023/08/11 09:50:11;;;;;;;8.13;4.68;;;26.40;99.90;;;;;;4999191;28;20547;-94
2023/08/11 09:52:38;;;;;;;7.72;5.18;;;26.50;99.90;;;;;;4998725;28;20116;-94
2023/08/11 09:55:08;;;;;;;7.55;4.82;;;26.60;99.90;;;;;;4996100;28;20045;-92
2023/08/11 09:57:40;;;;;;;5.53;3.97;;;26.70;99.90;;;;;;4995874;28;20026;-94
2023/08/11 10:00:11;;;;;;;;;;;26.90;99.90;;;;;;5001035;28;20038;-96
2023/08/11 10:02:53;;;;;;;4.50;2.93;;;27.00;99.90;;;;;;4982173;28;19913;-94
2023/08/11 10:05:19;;;;;;;6.15;3.63;;;26.90;99.90;;;;;;4991942;28;20298;-94
2023/08/11 10:07:48;;;;;;;6.32;3.80;;;26.90;99.90;;;;;;4984826;28;20033;-93
2023/08/11 10:10:17;;;;;;;8.85;4.00;;;27.00;99.90;;;;;;4996913;28;20091;-94
2023/08/11 10:12:48;;;;;;;6.32;4.03;;;27.10;99.90;;;;;;4993752;28;20018;-94
2023/08/11 10:15:19;;;;;;;6.43;3.22;;;27.30;99.90;;;;;;5007754;28;20026;-95
2023/08/11 10:17:45;;;;;;;4.80;3.28;;;27.40;99.90;;;;;;4997279;28;20034;-95
2023/08/11 10:20:11;;;;;;;4.75;2.80;;;27.60;99.90;;;;;;4997388;28;20095;-96
2023/08/11 10:22:38;;;;;;;4.55;1.50;;;27.70;99.90;;;;;;4997800;28;20482;-96
2023/08/11 10:25:06;;;;;;;2.92;1.63;;;27.90;99.70;;;;;;4992515;28;20070;-95
2023/08/11 10:27:32;;;;;;;2.97;1.50;;;28.00;98.90;;;;;;4997140;28;20046;-96
2023/08/11 10:29:59;;;;;;;3.70;1.73;;;28.10;97.90;;;;;;4987277;28;20479;-95
2023/08/11 10:32:31;;;;;;;5.32;2.25;;;28.30;97.60;;;;;;4994906;28;20018;-94
2023/08/11 10:34:57;;;;;;;2.95;1.90;;;28.40;97.10;;;;;;4988116;28;20486;-94
2023/08/11 10:37:33;;;;;;;2.60;1.30;;;28.40;96.40;;;;;;4990133;28;20034;-95
2023/08/11 10:40:03;;;;;;;3.50;1.73;;;28.40;96.20;;;;;;4988068;28;20033;-87
2023/08/11 10:42:29;;;;;;;2.53;1.45;;;28.40;95.60;;;;;;5007044;28;20437;-88
2023/08/11 10:45:07;;;;;;;5.00;1.83;;;28.30;95.40;;;;;;4995759;28;20034;-87
2023/08/11 10:47:33;;;;;;;2.70;1.50;;;28.30;95.90;;;;;;4983881;28;20490;-88
2023/08/11 10:49:58;;;;;;;3.10;1.38;;;28.30;95.30;;;;;;4976649;28;20126;-87
2023/08/11 10:52:24;;;;;;;4.88;1.63;;;28.30;95.40;;;;;;4979701;28;20125;-87
2023/08/11 10:54:51;;;;;;;3.13;1.48;;;28.20;95.30;;;;;;4976945;28;20111;-87
2023/08/11 10:57:16;;;;;;;2.40;1.20;;;28.20;95.20;;;;;;4986481;28;20026;-87
2023/08/11 10:59:42;;;;;;;4.32;1.20;;;28.30;95.60;;;;;;5008048;28;20030;-86
2023/08/11 11:02:07;;;;;;;4.45;1.60;;;28.40;95.00;;;;;;4977176;28;20023;-87
2023/08/11 11:04:33;;;;;;;5.82;1.27;;;28.50;94.30;;;;;;4976740;28;20041;-87
2023/08/11 11:07:00;;;;;;;5.50;1.55;;;28.60;94.30;;;;;;4985230;28;20028;-87
2023/08/11 11:09:29;;;;;;;5.10;0.95;;;28.60;94.10;;;;;;4995845;28;20025;-87
2023/08/11 11:11:55;;;;;;;4.55;1.02;;;28.50;93.80;;;;;;4991315;28;20026;-87
2023/08/11 11:14:21;;;;;;;2.00;1.02;;;28.50;94.10;;;;;;4996166;28;20053;-87
2023/08/11 11:16:47;;;;;;;2.70;1.27;;;28.60;93.80;;;;;;4988416;28;20437;-87
2023/08/11 11:19:12;;;;;;;2.92;0.93;;;28.60;93.70;;;;;;4995104;28;20022;-88
2023/08/11 11:21:42;;;;;;;3.60;0.88;;;28.60;93.30;;;;;;4995619;28;20036;-87
2023/08/11 11:24:08;;;;;;;2.65;0.90;;;28.60;93.20;;;;;;5001527;28;20086;-85
2023/08/11 11:26:34;;;;;;;3.03;0.70;;;28.60;92.60;;;;;;4984671;28;20053;-87
2023/08/11 11:29:02;;;;;;;2.55;1.02;;;28.70;93.10;;;;;;4992831;28;20022;-88
2023/08/11 11:31:29;;;;;;;1.90;1.05;;;28.70;92.90;;;;;;4987054;28;20470;-87
2023/08/11 11:33:55;;;;;;;2.58;1.20;;;28.70;92.40;;;;;;4989944;28;20022;-86
2023/08/11 11:36:23;;;;;;;1.40;0.80;;;28.80;92.40;;;;;;4990069;28;20397;-87
2023/08/11 11:38:49;;;;;;;1.60;0.70;;;28.90;92.80;;;;;;4988333;28;20022;-88
2023/08/11 11:41:17;;;;;;;2.53;1.02;;;28.90;92.40;;;;;;4988346;28;20048;-88
2023/08/11 11:43:45;;;;;;;3.67;1.05;;;28.90;92.40;;;;;;4995070;28;20029;-88
2023/08/11 11:46:17;;;;;;;1.73;0.75;;;28.90;92.30;;;;;;5004429;28;20034;-87
2023/08/11 11:48:47;;;;;;;1.80;0.68;;;29.00;92.40;;;;;;4991227;28;20064;-87
2023/08/11 11:51:16;;;;;;;2.58;1.20;;;29.10;92.70;;;;;;4993652;28;20504;-87
2023/08/11 11:53:42;;;;;;;1.92;0.95;;;29.20;93.20;;;;;;4980727;28;20117;-89
2023/08/11 11:56:12;;;;;;;3.42;0.90;;;29.20;92.40;;;;;;4991799;28;20117;-87
2023/08/11 11:58:38;;;;;;;1.55;0.80;;;29.30;91.40;;;;;;4984581;28;20026;-87
2023/08/11 12:01:11;;;;;;;2.65;0.90;;;29.20;91.50;;;;;;4980832;28;20402;-87
2023/08/11 12:03:36;;;;;;;2.05;0.70;;;29.20;91.50;;;;;;4982951;28;20037;-87
2023/08/11 12:06:08;;;;;;;2.33;0.88;;;29.30;91.70;;;;;;4980812;28;20086;-88
2023/08/11 12:08:35;;;;;;;2.50;0.75;;;29.30;91.70;;;;;;4995250;28;20029;-88
2023/08/11 12:11:01;;;;;;;1.65;0.70;;;29.30;91.20;;;;;;4993415;28;20022;-88
2023/08/11 12:13:28;;;;;;;2.45;0.90;;;29.40;91.10;;;;;;4991702;28;20034;-89
2023/08/11 12:15:54;;;;;;;3.08;0.73;;;29.40;91.10;;;;;;4995341;28;20076;-86
2023/08/11 12:18:20;;;;;;;1.33;0.60;;;29.40;91.10;;;;;;4992335;28;20026;-89
2023/08/11 12:20:46;;;;;;;5.90;0.60;;;29.40;90.60;;;;;;4976408;28;20022;-89
2023/08/11 12:23:12;;;;;;;2.28;0.70;;;29.20;90.10;;;;;;4984684;28;20030;-89
2023/08/11 12:25:38;;;;;;;5.78;0.90;;;29.20;90.30;;;;;;4990930;28;20548;-89
2023/08/11 12:28:04;;;;;;;3.13;0.68;;;29.20;90.50;;;;;;5000665;28;20030;-89
2023/08/11 12:30:30;;;;;;;1.30;0.70;;;29.30;90.60;;;;;;4990179;28;20084;-88
2023/08/11 12:32:55;;;;;;;1.77;0.68;;;29.40;90.50;;;;;;4995219;28;20026;-89